Terminal Aerodrome Forecast
Issued by NWS

Home | Current Version | Previous Version | Text Only | Print | Product List | Glossary On
Versions: 1 2 3 4 5 6 7 8 9 10 11 12 13 14 15
000
FTUS44 KLZK 281100
TAFLIT
TAF
KLIT 281120Z 2812/2912 34008KT P6SM SCT060 SCT120
     FM281500 36012KT P6SM SCT250
     FM290100 35006KT P6SM SKC=

USA.gov is the U.S. government's official web portal to all federal, state and local government web resources and services.